Current | Forecast
Updated: 10:00 AM JST on April 23, 2018
Observed at Nagoya / Chubu, Japan
Temperature 70°F
Humidity 68%
Dew Point 59°F
Wind ESE at 14 mph
Pressure 30.06 in (Falling)
Conditions Partly Cloudy
Visibility 6.2 miles
UV 9 out of 16
Clouds (FEW) : 3000 ft
Yesterday's Maximum 77°F
Yesterday's Minimum 55°F approx.
Yesterday's Cooling Degree Days 1 approx.
Sunrise5:13 AM JST
Sunset6:32 PM JST
Moon Rise11:27 AM JST
Moon Set12:50 AM JST
Moon PhaseMoon Phase
First Quarter
Raw METARMETAR RJGG 230100Z 12012KT 9999 FEW030 BKN/// 21/15 Q1018 NOSIG


Monday
. High: 73° F.
Tuesday
. High: 75° F.
Wednesday
. High: 71° F.
Thursday
. High: 71° F.
Friday
. High: 71° F.
Saturday
. High: 77° F.
Sunday
. High: 77° F.
Monday
. High: 77° F.

Units: English | Metric

Find the Weather for any City, State or Zipcode, or Country:

U.S. State List | Severe Weather | Tropical Storms | Ski Conditions
United States | Canada | Central America | South America | Asia | Europe | Australia | Africa | Islands

Weather Underground

© Copyright 2018
The Weather Company, LLC